createdAt,value
2023-04-02T00:01:24.014Z,98768.91
2023-04-02T00:04:17.847Z,98761.81
2023-04-02T00:06:46.793Z,98761.81
2023-04-02T00:09:31.684Z,98770.13
2023-04-02T00:11:59.690Z,98763.03
2023-04-02T00:14:28.123Z,98763.91
2023-04-02T00:16:55.979Z,98770.31
2023-04-02T00:19:26.450Z,98773.00
2023-04-02T00:21:57.320Z,98774.25
2023-04-02T00:24:25.811Z,98772.38
2023-04-02T00:26:53.548Z,98770.31
2023-04-02T00:29:20.999Z,98772.38
2023-04-02T00:31:50.096Z,98766.16
2023-04-02T00:34:18.513Z,98772.38
2023-04-02T00:36:47.730Z,98769.47
2023-04-02T00:39:19.065Z,98767.81
2023-04-02T00:41:46.273Z,98766.16
2023-04-02T00:44:13.726Z,98775.06
2023-04-02T00:46:42.940Z,98775.91
2023-04-02T00:49:13.193Z,98776.09
2023-04-02T00:51:44.499Z,98788.56
2023-04-02T00:54:13.236Z,98779.84
2023-04-02T00:56:43.460Z,98778.81
2023-04-02T00:59:18.047Z,98782.53
2023-04-02T01:01:46.111Z,98780.03
2023-04-02T01:04:27.582Z,98782.09
2023-04-02T01:06:55.461Z,98781.06
2023-04-02T01:09:28.052Z,98781.06
2023-04-02T01:12:09.813Z,98774.19
2023-04-02T01:14:43.096Z,98778.75
2023-04-02T01:17:18.030Z,98777.72
2023-04-02T01:19:53.768Z,98779.56
2023-04-02T01:22:22.966Z,98773.53
2023-04-02T01:24:50.154Z,98781.00
2023-04-02T01:27:21.635Z,98775.78
2023-04-02T01:29:53.573Z,98780.81
2023-04-02T01:32:22.355Z,98784.16
2023-04-02T01:34:50.726Z,98783.72
2023-04-02T01:37:24.845Z,98784.34
2023-04-02T01:40:00.205Z,98783.53
2023-04-02T01:42:31.877Z,98787.25
2023-04-02T01:45:02.725Z,98787.44
2023-04-02T01:47:29.865Z,98784.56
2023-04-02T01:49:58.421Z,98782.88
2023-04-02T01:52:34.228Z,98790.16
2023-04-02T01:55:01.809Z,98788.09
2023-04-02T01:57:29.854Z,98784.75
2023-04-02T01:59:57.280Z,98792.44
2023-04-02T02:02:26.460Z,98790.59
2023-04-02T02:04:53.985Z,98793.75
2023-04-02T02:07:21.776Z,98792.31
2023-04-02T02:09:53.324Z,98794.75
2023-04-02T02:12:20.921Z,98796.84
2023-04-02T02:14:48.370Z,98796.16
2023-04-02T02:17:16.120Z,98801.97
2023-04-02T02:19:47.009Z,98806.91
2023-04-02T02:22:17.980Z,98806.00
2023-04-02T02:24:45.386Z,98803.69
2023-04-02T02:27:27.729Z,98810.13
2023-04-02T02:30:07.486Z,98812.66
2023-04-02T02:32:38.697Z,98812.00
2023-04-02T02:35:11.638Z,98815.72
2023-04-02T02:37:41.173Z,98812.00
2023-04-02T02:40:13.019Z,98808.03
2023-04-02T02:42:42.632Z,98810.53
2023-04-02T02:45:13.376Z,98815.72
2023-04-02T02:47:42.606Z,98813.25
2023-04-02T02:50:18.314Z,98816.75
2023-04-02T02:52:47.118Z,98812.38
2023-04-02T02:55:17.106Z,98809.69
2023-04-02T02:57:51.884Z,98811.56
2023-04-02T03:00:20.394Z,98809.69
2023-04-02T03:02:48.505Z,98802.44
2023-04-02T03:05:21.378Z,98802.22
2023-04-02T03:07:51.801Z,98809.69
2023-04-02T03:10:21.238Z,98808.88
2023-04-02T03:12:53.004Z,98806.16
2023-04-02T03:15:23.780Z,98814.28
2023-04-02T03:17:54.313Z,98805.97
2023-04-02T03:20:26.061Z,98813.50
2023-04-02T03:22:56.014Z,98813.38
2023-04-02T03:25:27.725Z,98814.00
2023-04-02T03:27:59.765Z,98814.00
2023-04-02T03:30:29.940Z,98822.75
2023-04-02T03:33:01.689Z,98823.59
2023-04-02T03:35:33.984Z,98820.88
2023-04-02T03:38:03.775Z,98818.19
2023-04-02T03:40:34.846Z,98818.19
2023-04-02T03:43:04.694Z,98825.44
2023-04-02T03:45:34.272Z,98819.84
2023-04-02T03:48:05.685Z,98811.75
2023-04-02T03:50:38.670Z,98821.53
2023-04-02T03:53:05.903Z,98824.41
2023-04-02T03:55:35.552Z,98814.47
2023-04-02T03:58:06.199Z,98824.22
2023-04-02T04:00:38.260Z,98835.66
2023-04-02T04:03:10.749Z,98827.56
2023-04-02T04:05:44.119Z,98825.91
2023-04-02T04:08:15.473Z,98827.56
2023-04-02T04:10:43.582Z,98824.03
2023-04-02T04:13:13.573Z,98825.91
2023-04-02T04:15:43.122Z,98828.59
2023-04-02T04:18:17.606Z,98824.84
2023-04-02T04:20:50.294Z,98822.78
2023-04-02T04:23:19.739Z,98823.66
2023-04-02T04:25:47.222Z,98823.47
2023-04-02T04:28:22.097Z,98826.97
2023-04-02T04:30:51.514Z,98824.28
2023-04-02T04:33:22.758Z,98833.22
2023-04-02T04:35:56.546Z,98829.88
2023-04-02T04:38:30.855Z,98831.75
2023-04-02T04:41:01.172Z,98831.75
2023-04-02T04:43:35.053Z,98829.03
2023-04-02T04:46:05.588Z,98825.31
2023-04-02T04:48:36.454Z,98831.56
2023-04-02T04:51:09.001Z,98824.69
2023-04-02T04:53:45.542Z,98827.19
2023-04-02T04:56:19.296Z,98827.81
2023-04-02T04:58:53.431Z,98823.66
2023-04-02T05:01:23.270Z,98820.75
2023-04-02T05:03:52.934Z,98825.94
2023-04-02T05:06:24.404Z,98824.09
2023-04-02T05:08:53.669Z,98823.91
2023-04-02T05:11:24.393Z,98827.44
2023-04-02T05:13:55.025Z,98827.44
2023-04-02T05:16:25.988Z,98821.22
2023-04-02T05:18:56.873Z,98822.88
2023-04-02T05:21:27.583Z,98824.72
2023-04-02T05:23:59.314Z,98829.09
2023-04-02T05:26:30.925Z,98829.94
2023-04-02T05:29:01.219Z,98832.66
2023-04-02T05:31:31.289Z,98829.09
2023-04-02T05:33:58.558Z,98833.47
2023-04-02T05:36:28.546Z,98829.09
2023-04-02T05:38:59.857Z,98822.88
2023-04-02T05:41:41.440Z,98827.25
2023-04-02T05:44:12.424Z,98818.91
2023-04-02T05:46:43.977Z,98823.50
2023-04-02T05:49:17.756Z,98820.81
2023-04-02T05:51:51.145Z,98826.84
2023-04-02T05:54:22.165Z,98826.66
2023-04-02T05:56:58.624Z,98826.44
2023-04-02T05:59:27.956Z,98829.63
2023-04-02T06:01:58.674Z,98835.03
2023-04-02T06:04:34.960Z,98832.97
2023-04-02T06:07:06.029Z,98829.44
2023-04-02T06:09:38.834Z,98828.41
2023-04-02T06:12:23.705Z,98830.91
2023-04-02T06:14:51.894Z,98836.09
2023-04-02T06:17:20.866Z,98838.00
2023-04-02T06:19:49.109Z,98833.22
2023-04-02T06:22:22.705Z,98828.44
2023-04-02T06:24:58.027Z,98833.06
2023-04-02T06:27:26.561Z,98838.47
2023-04-02T06:29:57.165Z,98832.22
2023-04-02T06:32:26.144Z,98836.81
2023-04-02T06:34:54.251Z,98841.00
2023-04-02T06:37:26.095Z,98842.22
2023-04-02T06:40:07.083Z,98832.88
2023-04-02T06:42:36.202Z,98837.03
2023-04-02T06:45:16.552Z,98835.59
2023-04-02T06:47:49.213Z,98821.03
2023-04-02T06:50:30.974Z,98828.16
2023-04-02T06:53:03.058Z,98832.31
2023-04-02T06:55:33.434Z,98825.47
2023-04-02T06:58:01.652Z,98833.38
2023-04-02T07:00:35.564Z,98829.41
2023-04-02T07:03:06.668Z,98827.97
2023-04-02T07:05:34.741Z,98827.91
2023-04-02T07:08:04.171Z,98822.50
2023-04-02T07:10:32.187Z,98820.69
2023-04-02T07:12:59.596Z,98816.13
2023-04-02T07:15:26.688Z,98819.50
2023-04-02T07:17:55.097Z,98820.53
2023-04-02T07:20:26.055Z,98820.97
2023-04-02T07:22:54.254Z,98813.28
2023-04-02T07:25:23.906Z,98809.31
2023-04-02T07:27:52.708Z,98821.56
2023-04-02T07:30:19.997Z,98819.94
2023-04-02T07:32:48.648Z,98812.88
2023-04-02T07:35:16.447Z,98822.03
2023-04-02T07:37:43.728Z,98818.31
2023-04-02T07:40:16.670Z,98811.22
2023-04-02T07:42:46.205Z,98812.91
2023-04-02T07:45:13.299Z,98812.53
2023-04-02T07:47:41.521Z,98814.81
2023-04-02T07:50:10.100Z,98802.94
2023-04-02T07:52:40.455Z,98804.41
2023-04-02T07:55:08.235Z,98814.13
2023-04-02T07:57:37.994Z,98805.59
2023-04-02T08:00:08.524Z,98807.50
2023-04-02T08:02:39.470Z,98796.91
2023-04-02T08:05:07.456Z,98787.53
2023-04-02T08:07:35.338Z,98789.63
2023-04-02T08:10:02.734Z,98794.34
2023-04-02T08:12:29.954Z,98786.09
2023-04-02T08:14:57.045Z,98785.19
2023-04-02T08:17:25.721Z,98787.06
2023-04-02T08:19:55.058Z,98790.84
2023-04-02T08:22:22.730Z,98782.88
2023-04-02T08:24:49.911Z,98783.75
2023-04-02T08:27:17.370Z,98784.59
2023-04-02T08:29:44.733Z,98781.91
2023-04-02T08:32:12.529Z,98791.69
2023-04-02T08:34:41.941Z,98772.50
2023-04-02T08:37:10.382Z,98773.47
2023-04-02T08:39:37.624Z,98777.13
2023-04-02T08:42:07.572Z,98773.78
2023-04-02T08:44:43.440Z,98767.97
2023-04-02T08:47:14.019Z,98763.59
2023-04-02T08:49:48.812Z,98760.75
2023-04-02T08:52:21.097Z,98764.66
2023-04-02T08:54:48.358Z,98762.59
2023-04-02T08:57:21.779Z,98765.47
2023-04-02T08:59:54.442Z,98762.13
2023-04-02T09:02:25.463Z,98760.06
2023-04-02T09:04:54.745Z,98763.41
2023-04-02T09:07:22.971Z,98763.59
2023-04-02T09:09:50.879Z,98760.06
2023-04-02T09:12:20.558Z,98764.66
2023-04-02T09:14:54.900Z,98765.91
2023-04-02T09:17:23.031Z,98755.13
2023-04-02T09:19:54.856Z,98761.78
2023-04-02T09:22:23.410Z,98761.94
2023-04-02T09:24:53.712Z,98754.03
2023-04-02T09:27:22.730Z,98753.44
2023-04-02T09:29:54.202Z,98756.19
2023-04-02T09:32:35.404Z,98753.69
2023-04-02T09:35:18.499Z,98762.66
2023-04-02T09:38:10.209Z,98763.50
2023-04-02T09:40:44.446Z,98757.69
2023-04-02T09:43:12.775Z,98756.84
2023-04-02T09:45:41.932Z,98758.50
2023-04-02T09:48:18.396Z,98753.31
2023-04-02T09:50:48.037Z,98761.19
2023-04-02T09:53:27.553Z,98758.72
2023-04-02T09:56:10.286Z,98755.63
2023-04-02T09:58:37.446Z,98754.00
2023-04-02T10:01:04.863Z,98749.00
2023-04-02T10:03:33.472Z,98748.31
2023-04-02T10:06:10.102Z,98744.44
2023-04-02T10:08:38.146Z,98747.38
2023-04-02T10:11:08.887Z,98757.75
2023-04-02T10:13:40.262Z,98757.16
2023-04-02T10:16:09.813Z,98753.59
2023-04-02T10:18:39.560Z,98753.00
2023-04-02T10:21:11.074Z,98751.13
2023-04-02T10:23:38.798Z,98750.75
2023-04-02T10:26:12.519Z,98747.22
2023-04-02T10:28:46.267Z,98741.56
2023-04-02T10:31:16.199Z,98744.94
2023-04-02T10:33:46.106Z,98740.31
2023-04-02T10:36:21.378Z,98737.63
2023-04-02T10:38:51.458Z,98744.53
2023-04-02T10:41:25.515Z,98742.84
2023-04-02T10:44:19.663Z,98739.50
2023-04-02T10:46:52.585Z,98745.31
2023-04-02T10:49:24.376Z,98744.56
2023-04-02T10:51:55.520Z,98742.47
2023-04-02T10:54:34.438Z,98750.78
2023-04-02T10:57:05.731Z,98744.31
2023-04-02T10:59:34.604Z,98744.31
2023-04-02T11:02:05.056Z,98744.94
2023-04-02T11:04:35.802Z,98743.72
2023-04-02T11:07:14.033Z,98739.16
2023-04-02T11:09:44.277Z,98733.09
2023-04-02T11:12:18.621Z,98736.63
2023-04-02T11:14:45.668Z,98735.41
2023-04-02T11:17:14.306Z,98728.75
2023-04-02T11:19:42.075Z,98733.91
2023-04-02T11:22:17.072Z,98731.59
2023-04-02T11:24:46.753Z,98728.88
2023-04-02T11:27:17.628Z,98732.78
2023-04-02T11:29:47.730Z,98733.28
2023-04-02T11:32:36.066Z,98731.47
2023-04-02T11:35:25.062Z,98728.34
2023-04-02T11:37:54.041Z,98727.09
2023-04-02T11:40:40.494Z,98730.25
2023-04-02T11:43:22.893Z,98711.59
2023-04-02T11:45:57.488Z,98722.78
2023-04-02T11:48:29.467Z,98726.47
2023-04-02T11:50:57.170Z,98731.44
2023-04-02T11:53:31.484Z,98730.19
2023-04-02T11:56:09.853Z,98724.13
2023-04-02T11:58:51.793Z,98725.19
2023-04-02T12:01:30.146Z,98723.31
2023-04-02T12:04:17.725Z,98720.00
2023-04-02T12:06:53.960Z,98722.31
2023-04-02T12:09:24.241Z,98717.28
2023-04-02T12:11:53.145Z,98720.63
2023-04-02T12:14:32.245Z,98716.88
2023-04-02T12:17:00.813Z,98718.75
2023-04-02T12:19:30.730Z,98715.34
2023-04-02T12:21:59.446Z,98717.38
2023-04-02T12:24:30.227Z,98719.47
2023-04-02T12:27:16.030Z,98724.59
2023-04-02T12:29:44.835Z,98722.50
2023-04-02T12:32:19.764Z,98718.56
2023-04-02T12:34:47.681Z,98712.28
2023-04-02T12:37:21.238Z,98713.75
2023-04-02T12:39:55.957Z,98716.88
2023-04-02T12:42:27.807Z,98713.59
2023-04-02T12:44:55.975Z,98718.09
2023-04-02T12:47:23.198Z,98717.59
2023-04-02T12:49:51.991Z,98727.00
2023-04-02T12:52:21.744Z,98720.94
2023-04-02T12:54:49.903Z,98727.53
2023-04-02T12:57:23.400Z,98725.56
2023-04-02T12:59:51.999Z,98727.56
2023-04-02T13:02:20.402Z,98734.72
2023-04-02T13:04:48.525Z,98726.78
2023-04-02T13:07:17.993Z,98725.13
2023-04-02T13:09:47.364Z,98735.13
2023-04-02T13:12:27.480Z,98727.44
2023-04-02T13:14:56.588Z,98727.44
2023-04-02T13:17:37.582Z,98729.25
2023-04-02T13:20:24.362Z,98726.81
2023-04-02T13:22:52.121Z,98728.47
2023-04-02T13:25:25.074Z,98724.72
2023-04-02T13:27:54.126Z,98731.41
2023-04-02T13:30:22.484Z,98726.78
2023-04-02T13:32:50.198Z,98734.31
2023-04-02T13:35:18.484Z,98726.78
2023-04-02T13:37:46.056Z,98735.59
2023-04-02T13:40:14.264Z,98738.06
2023-04-02T13:42:42.221Z,98732.03
2023-04-02T13:45:18.712Z,98730.38
2023-04-02T13:47:45.843Z,98734.75
2023-04-02T13:50:15.952Z,98737.47
2023-04-02T13:52:43.261Z,98736.00
2023-04-02T13:55:10.627Z,98737.28
2023-04-02T13:57:37.902Z,98730.59
2023-04-02T14:00:05.958Z,98743.91
2023-04-02T14:02:34.867Z,98738.31
2023-04-02T14:05:10.430Z,98736.84
2023-04-02T14:07:46.380Z,98738.94
2023-04-02T14:10:20.548Z,98741.63
2023-04-02T14:12:53.996Z,98733.88
2023-04-02T14:15:29.042Z,98732.91
2023-04-02T14:18:11.013Z,98740.16
2023-04-02T14:20:43.408Z,98731.88
2023-04-02T14:23:18.344Z,98733.56
2023-04-02T14:25:50.029Z,98734.22
2023-04-02T14:28:23.442Z,98734.03
2023-04-02T14:30:54.795Z,98731.16
2023-04-02T14:33:29.116Z,98729.91
2023-04-02T14:36:06.591Z,98733.25
2023-04-02T14:38:37.554Z,98737.00
2023-04-02T14:41:07.684Z,98735.53
2023-04-02T14:43:40.102Z,98732.44
2023-04-02T14:46:08.502Z,98737.44
2023-04-02T14:48:40.768Z,98741.81
2023-04-02T14:51:13.710Z,98740.94
2023-04-02T14:53:48.190Z,98742.41
2023-04-02T14:56:16.769Z,98748.81
2023-04-02T14:58:46.626Z,98746.72
2023-04-02T15:01:17.068Z,98750.44
2023-04-02T15:03:49.332Z,98754.66
2023-04-02T15:06:21.148Z,98760.72
2023-04-02T15:08:58.646Z,98756.97
2023-04-02T15:11:35.897Z,98761.97
2023-04-02T15:14:07.780Z,98765.91
2023-04-02T15:16:36.046Z,98760.31
2023-04-02T15:19:04.935Z,98770.50
2023-04-02T15:21:55.869Z,98763.00
2023-04-02T15:24:31.261Z,98768.44
2023-04-02T15:27:09.318Z,98775.91
2023-04-02T15:29:44.565Z,98778.03
2023-04-02T15:32:19.051Z,98775.72
2023-04-02T15:34:49.069Z,98776.53
2023-04-02T15:37:24.180Z,98774.03
2023-04-02T15:39:57.936Z,98777.41
2023-04-02T15:42:28.595Z,98774.69
2023-04-02T15:45:08.663Z,98775.72
2023-04-02T15:47:39.113Z,98785.50
2023-04-02T15:50:13.685Z,98773.66
2023-04-02T15:52:48.328Z,98775.31
2023-04-02T15:55:22.874Z,98785.72
2023-04-02T15:58:01.620Z,98786.94
2023-04-02T16:00:31.416Z,98783.63
2023-04-02T16:03:15.816Z,98788.66
2023-04-02T16:05:49.469Z,98785.94
2023-04-02T16:08:30.265Z,98784.06
2023-04-02T16:10:58.505Z,98791.13
2023-04-02T16:13:29.137Z,98790.94
2023-04-02T16:16:02.450Z,98794.25
2023-04-02T16:18:38.244Z,98777.41
2023-04-02T16:21:07.435Z,98795.28
2023-04-02T16:23:37.318Z,98793.41
2023-04-02T16:26:24.749Z,98801.53
2023-04-02T16:29:03.492Z,98809.25
2023-04-02T16:31:36.119Z,98800.91
2023-04-02T16:34:08.929Z,98798.19
2023-04-02T16:36:44.239Z,98801.31
2023-04-02T16:39:20.882Z,98806.50
2023-04-02T16:41:55.484Z,98804.22
2023-04-02T16:44:29.378Z,98799.84
2023-04-02T16:47:02.847Z,98809.63
2023-04-02T16:49:35.587Z,98805.88
2023-04-02T16:52:11.698Z,98807.16
2023-04-02T16:54:45.580Z,98814.22
2023-04-02T16:57:22.182Z,98808.19
2023-04-02T16:59:55.406Z,98809.44
2023-04-02T17:02:29.703Z,98812.75
2023-04-02T17:05:05.549Z,98810.91
2023-04-02T17:07:40.627Z,98807.16
2023-04-02T17:10:17.558Z,98813.59
2023-04-02T17:12:45.662Z,98815.28
2023-04-02T17:15:27.682Z,98812.94
2023-04-02T17:17:58.335Z,98809.88
2023-04-02T17:20:26.977Z,98808.81
2023-04-02T17:22:55.543Z,98809.88
2023-04-02T17:25:27.147Z,98819.41
2023-04-02T17:27:56.669Z,98819.84
2023-04-02T17:30:29.791Z,98817.13
2023-04-02T17:32:57.484Z,98814.00
2023-04-02T17:35:29.743Z,98819.81
2023-04-02T17:38:02.096Z,98812.75
2023-04-02T17:40:35.417Z,98812.94
2023-04-02T17:43:07.038Z,98811.28
2023-04-02T17:45:37.731Z,98812.31
2023-04-02T17:48:10.961Z,98817.53
2023-04-02T17:50:53.744Z,98817.75
2023-04-02T17:53:28.968Z,98819.81
2023-04-02T17:56:07.034Z,98818.97
2023-04-02T17:58:43.671Z,98811.50
2023-04-02T18:01:13.006Z,98814.41
2023-04-02T18:03:54.349Z,98823.56
2023-04-02T18:06:23.738Z,98826.03
2023-04-02T18:09:15.897Z,98827.09
2023-04-02T18:11:51.130Z,98821.91
2023-04-02T18:14:31.870Z,98821.91
2023-04-02T18:17:03.799Z,98813.78
2023-04-02T18:19:39.634Z,98822.72
2023-04-02T18:22:11.740Z,98815.63
2023-04-02T18:24:46.361Z,98819.19
2023-04-02T18:27:25.057Z,98823.94
2023-04-02T18:29:56.679Z,98820.22
2023-04-02T18:32:38.913Z,98820.00
2023-04-02T18:35:12.220Z,98818.16
2023-04-02T18:37:44.727Z,98820.41
2023-04-02T18:40:22.429Z,98817.53
2023-04-02T18:42:58.157Z,98820.22
2023-04-02T18:45:30.866Z,98821.47
2023-04-02T18:48:01.826Z,98812.50
2023-04-02T18:50:31.040Z,98819.38
2023-04-02T18:52:58.757Z,98824.34
2023-04-02T18:55:28.047Z,98823.53
2023-04-02T18:58:00.757Z,98828.53
2023-04-02T19:00:30.521Z,98822.09
2023-04-02T19:03:02.224Z,98828.53
2023-04-02T19:05:37.081Z,98821.03
2023-04-02T19:08:09.307Z,98825.41
2023-04-02T19:10:38.486Z,98821.03
2023-04-02T19:13:12.604Z,98825.59
2023-04-02T19:15:43.682Z,98816.44
2023-04-02T19:18:17.871Z,98827.66
2023-04-02T19:20:50.864Z,98823.91
2023-04-02T19:23:28.863Z,98824.78
2023-04-02T19:26:01.076Z,98826.44
2023-04-02T19:28:34.036Z,98834.13
2023-04-02T19:31:10.189Z,98830.19
2023-04-02T19:33:45.503Z,98823.72
2023-04-02T19:36:22.503Z,98825.56
2023-04-02T19:38:59.050Z,98831.59
2023-04-02T19:41:29.661Z,98833.47
2023-04-02T19:43:59.338Z,98834.31
2023-04-02T19:46:27.141Z,98829.56
2023-04-02T19:48:59.164Z,98833.69
2023-04-02T19:51:26.531Z,98842.22
2023-04-02T19:53:53.736Z,98838.66
2023-04-02T19:56:21.167Z,98840.56
2023-04-02T19:58:50.148Z,98840.13
2023-04-02T20:01:18.889Z,98839.34
2023-04-02T20:03:46.841Z,98844.31
2023-04-02T20:06:14.151Z,98835.56
2023-04-02T20:08:41.345Z,98840.56
2023-04-02T20:11:08.597Z,98830.50
2023-04-02T20:13:35.982Z,98833.44
2023-04-02T20:16:04.417Z,98839.47
2023-04-02T20:18:32.936Z,98834.44
2023-04-02T20:21:04.144Z,98842.53
2023-04-02T20:23:31.453Z,98828.03
2023-04-02T20:25:58.484Z,98830.06
2023-04-02T20:28:27.019Z,98833.00
2023-04-02T20:30:54.403Z,98831.31
2023-04-02T20:33:22.423Z,98840.06
2023-04-02T20:35:53.034Z,98834.41
2023-04-02T20:38:20.269Z,98836.91
2023-04-02T20:40:47.876Z,98840.66
2023-04-02T20:43:15.104Z,98833.38
2023-04-02T20:45:52.881Z,98836.28
2023-04-02T20:48:20.128Z,98826.28
2023-04-02T20:50:47.491Z,98832.97
2023-04-02T20:53:16.121Z,98828.38
2023-04-02T20:55:44.164Z,98822.97
2023-04-02T20:58:11.526Z,98827.56
2023-04-02T21:00:38.701Z,98838.38
2023-04-02T21:03:06.459Z,98831.25
2023-04-02T21:05:33.784Z,98833.34
2023-04-02T21:08:00.979Z,98838.97
2023-04-02T21:10:30.057Z,98838.75
2023-04-02T21:12:57.096Z,98837.06
2023-04-02T21:15:24.702Z,98838.97
2023-04-02T21:17:53.076Z,98838.13
2023-04-02T21:20:20.242Z,98835.41
2023-04-02T21:22:47.304Z,98842.91
2023-04-02T21:25:15.224Z,98835.81
2023-04-02T21:27:44.021Z,98842.25
2023-04-02T21:30:11.861Z,98838.91
2023-04-02T21:32:39.375Z,98834.16
2023-04-02T21:35:07.252Z,98833.50
2023-04-02T21:37:34.409Z,98835.38
2023-04-02T21:40:01.771Z,98828.31
2023-04-02T21:42:28.990Z,98832.84
2023-04-02T21:44:57.522Z,98837.63
2023-04-02T21:47:25.411Z,98828.22
2023-04-02T21:49:52.582Z,98835.13
2023-04-02T21:52:20.127Z,98846.56
2023-04-02T21:54:48.000Z,98835.38
2023-04-02T21:57:17.218Z,98838.72
2023-04-02T21:59:45.057Z,98835.41
2023-04-02T22:02:14.197Z,98836.03
2023-04-02T22:04:41.512Z,98834.63
2023-04-02T22:07:08.786Z,98835.88
2023-04-02T22:09:36.098Z,98838.59
2023-04-02T22:12:03.226Z,98838.78
2023-04-02T22:14:30.888Z,98832.13
2023-04-02T22:16:58.197Z,98840.66
2023-04-02T22:19:27.609Z,98844.84
2023-04-02T22:21:54.895Z,98839.63
2023-04-02T22:24:22.247Z,98837.53
2023-04-02T22:26:50.093Z,98840.06
2023-04-02T22:29:17.241Z,98839.22
2023-04-02T22:31:44.733Z,98836.31
2023-04-02T22:34:12.025Z,98831.94
2023-04-02T22:36:40.749Z,98834.66
2023-04-02T22:39:07.816Z,98837.78
2023-04-02T22:41:35.676Z,98837.13
2023-04-02T22:44:03.160Z,98830.72
2023-04-02T22:46:30.780Z,98831.81
2023-04-02T22:48:58.243Z,98828.41
2023-04-02T22:51:25.686Z,98821.34
2023-04-02T22:53:55.456Z,98829.69
2023-04-02T22:56:24.073Z,98818.22
2023-04-02T22:58:51.100Z,98822.78
2023-04-02T23:01:19.417Z,98822.03
2023-04-02T23:03:46.717Z,98825.31
2023-04-02T23:06:14.830Z,98825.06
2023-04-02T23:08:43.458Z,98822.78
2023-04-02T23:11:13.314Z,98827.59
2023-04-02T23:13:40.974Z,98830.91
2023-04-02T23:16:10.263Z,98831.34
2023-04-02T23:18:38.207Z,98825.09
2023-04-02T23:21:06.115Z,98826.31
2023-04-02T23:23:33.957Z,98823.44
2023-04-02T23:26:05.366Z,98819.69
2023-04-02T23:28:34.474Z,98820.09
2023-04-02T23:31:02.306Z,98826.72
2023-04-02T23:33:29.618Z,98835.88
2023-04-02T23:35:57.068Z,98840.44
2023-04-02T23:38:24.748Z,98826.09
2023-04-02T23:40:52.720Z,98825.31
2023-04-02T23:43:21.161Z,98836.31
2023-04-02T23:45:50.357Z,98832.13
2023-04-02T23:48:17.586Z,98833.81
2023-04-02T23:50:45.169Z,98823.44
2023-04-02T23:53:13.099Z,98826.59
2023-04-02T23:55:40.411Z,98823.03
2023-04-02T23:58:07.800Z,98817.19
